Historyczne dane pomiarowe

Dodano dane terminowe – wersja testowa.

Dane z okresu 1951-2019

Wersja bazy: 1.34 [2019-03-16, lista zmian], aktualizacja planowana na 2019-04-15

Dane meteo z obszaru Polski uzyskane na podstawie danych udostępnionych przez Instytut Meteorologii i Gospodarki Wodnej – Państwowy Instytut Badawczy.

 

Wybierz Datę:    

       

TemperaturaWilgotnośćWiatrCiśnienieOpadyŚniegCzas trwania zjawisk
 Stacja t tx tn tng RH VA  wxwx mslp ppp RRR   cm mm wxwxwxwxwxwxwx
1983-08-14 14.1 18.4 10.1- 71.3- 2.0 5.7---- 0.0------------
1983-08-13 14.7 20.1 12.0- 86.8- 6.3 4.0---- 2.9------------
1983-08-12 18.3 24.8 14.1- 88.5- 6.7 2.7---- 0.1------------
1983-08-11 18.8 22.2 15.8- 86.5- 8.0 2.3---- 6.1------------
1983-08-10 18.6 25.5 13.3- 82.0- 5.3 3.0---- 11.4------------
1983-08-09 18.8 25.5 13.8- 81.8- 3.7 3.0---- 0.0------------
1983-08-08 19.1 26.7 14.8- 85.8- 4.3 2.7---- 20.6------------
1983-08-07 19.7 26.7 14.9- 93.5- 6.0 0.3---- 3.8------------
1983-08-06 15.1 20.7 8.2- 81.8- 4.7 0.0---- 2.7------------
1983-08-05 13.8 17.8 11.4- 83.5- 6.3 2.0---- 0.0------------
1983-08-04 15.8 22.9 13.0- 83.8- 8.0 3.0---- 21.0------------
1983-08-03 21.4 28.3 15.8- 68.0- 4.7 3.0---- 0.0------------
1983-08-02 19.8 26.1 11.8- 67.0- 0.7 4.0---- 0.0------------
1983-08-01 17.9 24.5 9.8- 70.8- 0.0 1.7---- 0.0------------
1983-07-31 17.8 22.5 12.4- 69.8- 2.7 2.7---- 0.0------------
1983-07-30 16.6 19.7 14.1- 76.3- 7.0 4.0---- 0.0------------
1983-07-29 18.1 23.4 13.6- 74.8- 5.3 2.7---- 0.0------------
1983-07-28 19.8 25.5 16.1- 83.3- 5.3 2.7---- 1.2------------
1983-07-27 22.1 28.1 15.5- 77.0- 0.3 2.3---- 6.9------------
1983-07-26 18.3 25.2 12.2- 84.3- 8.0 4.0---- 1.3------------
1983-07-25 14.3 19.5 7.7- 87.3- 6.3 5.0---- 1.2------------
1983-07-24 15.0 18.7 8.0- 85.8- 5.3 0.3---- 7.7------------
1983-07-23 13.3 18.0 10.0- 93.3- 5.3 3.0---- 11.3------------
1983-07-22 12.7 16.8 9.8- 72.8- 7.3 2.0---- 3.3------------
1983-07-21 12.4 16.7 8.6- 73.0- 7.0 7.0---- 1.7------------
1983-07-20 16.8 23.0 11.4- 87.3- 8.0 3.7---- 7.7------------
1983-07-19 20.6 28.6 12.3- 74.3- 3.0 2.0---- 4.5------------
1983-07-18 19.2 26.1 9.5- 68.8- 0.3 0.7---- 0.0------------
1983-07-17 20.7 25.8 15.3- 76.8- 5.3 1.3---- 0.0------------
1983-07-16 19.9 27.0 11.6- 67.3- 3.0 2.3---- 0.0------------
1983-07-15 18.6 23.7 12.7- 74.8- 3.7 2.7---- 0.0------------
1983-07-14 18.1 23.4 11.8- 90.3- 8.0 8.0---- 29.5------------
1983-07-13 17.6 22.0 15.0- 94.0- 7.0 0.3---- 23.0------------
1983-07-12 17.0 20.5 14.8- 96.5- 7.0 1.3---- 26.1------------
1983-07-11 18.6 24.5 15.4- 86.5- 7.0 1.7---- 13.1------------
1983-07-10 20.3 26.2 13.1- 71.0- 5.7 2.7---- 16.4------------
1983-07-09 20.3 26.7 11.8- 69.3- 3.7 1.0---- 0.0------------
1983-07-08 17.7 25.2 7.9- 69.8- 0.0 2.0---- 0.0------------
1983-07-07 18.1 24.6 9.6- 67.5- 0.7 0.7---- 0.0------------
1983-07-06 18.1 25.0 8.9- 73.0- 1.3 1.7---- 0.0------------
1983-07-05 18.8 24.0 12.1- 79.5- 1.3 1.7---- 0.0------------
1983-07-04 18.1 25.6 8.7- 74.8- 3.0 0.7---- 0.0------------
1983-07-03 18.2 22.4 13.6- 72.5- 1.3 3.0---- 0.0------------
1983-07-02 18.7 22.5 15.4- 85.8- 8.0 1.3---- 11.3------------
1983-07-01 19.4 25.8 11.9- 79.5- 6.3 3.0---- 0.0------------
1983-06-30 15.9 22.6 6.8- 75.5- 3.0 2.0---- 0.0------------
1983-06-29 15.5 19.7 9.9- 71.5- 4.3 2.7---- 0.0------------
1983-06-28 17.1 20.2 15.4- 92.0- 8.0 0.0---- 10.5------------
1983-06-27 20.0 26.5 13.2- 80.3- 4.0 3.0---- 6.2------------
1983-06-26 19.7 24.2 15.3- 81.5- 6.0 2.0---- 0.0------------
1983-06-25 20.0 26.9 11.1- 63.5- 0.0 6.0---- 0.1------------
1983-06-24 16.3 23.9 5.6- 62.3- 0.0 1.3---- 0.0------------
1983-06-23 13.3 18.7 3.2- 62.8- 0.0 1.3---- 0.0------------
1983-06-22 12.1 19.2 6.3- 67.3- 1.0 3.0---- 0.0------------
1983-06-21 17.9 23.2 10.4- 74.5- 3.0 3.0---- 0.0------------
1983-06-20 18.1 22.7 14.2- 88.0- 7.0 2.3---- 0.0------------
1983-06-19 18.6 23.3 13.8- 87.5- 8.0 3.0---- 0.6------------
1983-06-18 13.4 14.8 10.8- 95.3- 8.0 5.0---- 28.5------------
1983-06-17 12.0 16.5 5.5- 84.8- 8.0 3.7---- 23.2------------
1983-06-16 13.6 16.4 11.3- 87.5- 8.0 5.0---- 0.0------------
337.8 ms

 

Źródłem pochodzenia danych jest Instytut Meteorologii i Gospodarki Wodnej – Państwowy Instytut Badawczy. Dane Instytutu Meteorologii i Gospodarki Wodnej – Państwowego Instytutu Badawczego zostały przetworzone.

Dane źródłowe można odnaleźć na stronie https://dane.imgw.pl